Main page
METAR-TAF:

METAR-TAF

Airports :

Pointe Noire Airport

Pointe-Noire, Congo

latitude: 04-49S, longitude: 011-54E, elevation: 17 m

Current weather observation

The report was made 25 minutes ago, at 02:00 UTC
Wind 5 kt from the South/Southwest
Temperature 24°C
Humidity 89%
Pressure 1010 hPa
Visibility: 8000 m
Broken clouds at a height of 800 ft
Overcast at a height of 2000 ft

METAR: FCPP 220200Z 21005KT 8000 BKN008 OVC020 24/22 Q1010 NOSIG

Time: 03:25 (02:25 UTC)

Forecast

The report was made 3 hours and 25 minutes ago, at 23:00 UTC
Forecast valid from 22 at 00 UTC to 22 at 24 UTC
Wind 5 kt from the South
Visibility: 7000 m
Scattered clouds at a height of 1000 ft
Overcast at a height of 2000 ft

TAF: FCPP 212300Z 2200/2224 19005KT 7000 SCT010 OVC020

Weather observations and forecasts of more than 4000 airports (METAR and TAF reports).

The available stations are represented by yellow and red dots on the map.

Hover mouse over dot to see the name of the station.

Then click to see weather observations and forecasts.

To change the map : click on the green buttons with a black cross to zoom in, on the green button with a dash to zoom out, or on the green arrows for adjacent maps.


METAR-TAF: